createdAt,value
2018-08-10T00:00:42.748Z,99743.05
2018-08-10T00:03:08.705Z,99745.28
2018-08-10T00:05:34.636Z,99749.12
2018-08-10T00:08:00.571Z,99747.73
2018-08-10T00:10:26.518Z,99751.42
2018-08-10T00:12:52.464Z,99754.93
2018-08-10T00:15:18.403Z,99761.27
2018-08-10T00:17:44.337Z,99766.46
2018-08-10T00:20:10.299Z,99765.83
2018-08-10T00:22:36.267Z,99765.15
2018-08-10T00:25:02.211Z,99772.49
2018-08-10T00:27:28.184Z,99773.95
2018-08-10T00:29:54.168Z,99787.27
2018-08-10T00:32:20.102Z,99787.30
2018-08-10T00:34:46.041Z,99782.22
2018-08-10T00:37:12.029Z,99789.78
2018-08-10T00:39:37.940Z,99801.75
2018-08-10T00:42:03.884Z,99809.70
2018-08-10T00:44:29.808Z,99814.08
2018-08-10T00:46:55.760Z,99824.59
2018-08-10T00:49:21.691Z,99816.95
2018-08-10T00:51:47.611Z,99824.47
2018-08-10T00:54:13.559Z,99818.37
2018-08-10T00:56:39.510Z,99837.92
2018-08-10T00:59:36.761Z,99830.36
2018-08-10T01:02:02.756Z,99825.12
2018-08-10T01:04:28.712Z,99829.06
2018-08-10T01:06:54.668Z,99834.58
2018-08-10T01:09:20.609Z,99831.29
2018-08-10T01:11:46.624Z,99830.67
2018-08-10T01:14:12.557Z,99834.35
2018-08-10T01:16:38.494Z,99841.22
2018-08-10T01:19:04.536Z,99852.59
2018-08-10T01:21:30.411Z,99854.91
2018-08-10T01:23:56.351Z,99862.30
2018-08-10T01:26:22.294Z,99861.87
2018-08-10T01:28:48.386Z,99869.73
2018-08-10T01:31:14.200Z,99864.27
2018-08-10T01:33:40.162Z,99865.41
2018-08-10T01:36:06.134Z,99860.50
2018-08-10T01:38:32.090Z,99864.80
2018-08-10T01:40:58.027Z,99862.41
2018-08-10T01:43:23.974Z,99861.53
2018-08-10T01:45:49.923Z,99873.05
2018-08-10T01:48:15.876Z,99882.55
2018-08-10T01:50:41.820Z,99883.84
2018-08-10T01:53:07.771Z,99888.99
2018-08-10T01:55:33.731Z,99892.88
2018-08-10T01:57:59.705Z,99892.37
2018-08-10T02:00:25.632Z,99897.17
2018-08-10T02:02:51.596Z,99903.56
2018-08-10T02:05:17.556Z,99902.94
2018-08-10T02:07:43.509Z,99902.94
2018-08-10T02:10:09.441Z,99897.62
2018-08-10T02:12:35.364Z,99905.88
2018-08-10T02:15:01.308Z,99903.16
2018-08-10T02:17:27.259Z,99898.02
2018-08-10T02:19:53.195Z,99902.68
2018-08-10T02:22:19.139Z,99902.53
2018-08-10T02:24:45.179Z,99893.95
2018-08-10T02:27:11.085Z,99890.57
2018-08-10T02:29:37.039Z,99894.83
2018-08-10T02:32:02.984Z,99889.41
2018-08-10T02:34:28.930Z,99892.38
2018-08-10T02:36:54.873Z,99886.44
2018-08-10T02:39:20.817Z,99888.92
2018-08-10T02:41:46.763Z,99898.12
2018-08-10T02:44:12.704Z,99899.27
2018-08-10T02:46:38.646Z,99904.58
2018-08-10T02:49:04.622Z,99904.10
2018-08-10T02:51:30.563Z,99916.70
2018-08-10T02:53:56.539Z,99918.13
2018-08-10T02:56:22.501Z,99921.25
2018-08-10T02:58:48.462Z,99924.92
2018-08-10T03:01:14.392Z,99927.66
2018-08-10T03:03:40.364Z,99927.09
2018-08-10T03:06:06.350Z,99922.98
2018-08-10T03:08:32.297Z,99924.50
2018-08-10T03:10:58.419Z,99922.55
2018-08-10T03:13:24.376Z,99927.69
2018-08-10T03:15:50.336Z,99938.25
2018-08-10T03:18:16.272Z,99944.83
2018-08-10T03:20:42.278Z,99953.95
2018-08-10T03:23:08.287Z,99963.81
2018-08-10T03:25:34.237Z,99959.36
2018-08-10T03:28:00.258Z,99965.40
2018-08-10T03:30:26.234Z,99960.44
2018-08-10T03:32:52.219Z,99966.03
2018-08-10T03:35:18.175Z,99974.03
2018-08-10T03:37:44.164Z,99971.05
2018-08-10T03:40:10.164Z,99977.12
2018-08-10T03:42:36.142Z,99975.30
2018-08-10T03:45:02.093Z,99973.82
2018-08-10T03:47:28.075Z,99980.28
2018-08-10T03:49:54.039Z,99979.23
2018-08-10T03:52:20.009Z,99993.91
2018-08-10T03:54:45.997Z,99992.42
2018-08-10T03:57:11.933Z,100001.62
2018-08-10T03:59:38.315Z,100011.23
2018-08-10T04:02:04.265Z,100012.49
2018-08-10T04:04:30.232Z,100022.52
2018-08-10T04:06:56.194Z,100028.56
2018-08-10T04:09:22.184Z,100035.83
2018-08-10T04:11:48.134Z,100037.44
2018-08-10T04:14:14.125Z,100037.47
2018-08-10T04:16:40.079Z,100036.11
2018-08-10T04:19:06.056Z,100040.30
2018-08-10T04:21:32.123Z,100038.25
2018-08-10T04:23:58.078Z,100056.84
2018-08-10T04:26:24.166Z,100052.19
2018-08-10T04:28:50.148Z,100059.13
2018-08-10T04:31:16.089Z,100056.74
2018-08-10T04:33:42.020Z,100067.74
2018-08-10T04:36:08.065Z,100074.16
2018-08-10T04:38:34.065Z,100077.25
2018-08-10T04:41:00.020Z,100076.52
2018-08-10T04:43:25.968Z,100080.55
2018-08-10T04:45:51.992Z,100081.80
2018-08-10T04:48:17.993Z,100077.91
2018-08-10T04:50:43.921Z,100080.11
2018-08-10T04:53:09.875Z,100079.31
2018-08-10T04:55:35.945Z,100079.66
2018-08-10T04:58:01.802Z,100076.27
2018-08-10T05:00:27.754Z,100094.06
2018-08-10T05:02:53.687Z,100096.59
2018-08-10T05:05:19.669Z,100103.20
2018-08-10T05:07:45.620Z,100110.64
2018-08-10T05:10:11.573Z,100109.98
2018-08-10T05:12:37.587Z,100110.89
2018-08-10T05:15:03.524Z,100120.09
2018-08-10T05:17:30.422Z,100143.13
2018-08-10T05:19:56.393Z,100139.69
2018-08-10T05:22:22.339Z,100150.11
2018-08-10T05:24:48.319Z,100148.56
2018-08-10T05:27:14.276Z,100158.52
2018-08-10T05:29:43.130Z,100161.45
2018-08-10T05:32:09.078Z,100162.75
2018-08-10T05:34:35.011Z,100169.97
2018-08-10T05:37:00.974Z,100170.34
2018-08-10T05:39:26.915Z,100172.56
2018-08-10T05:41:52.857Z,100174.12
2018-08-10T05:44:18.794Z,100168.39
2018-08-10T05:46:44.788Z,100177.23
2018-08-10T05:49:10.712Z,100184.59
2018-08-10T05:51:36.675Z,100191.91
2018-08-10T05:54:02.631Z,100204.91
2018-08-10T05:56:28.578Z,100201.70
2018-08-10T05:58:54.518Z,100199.86
2018-08-10T06:01:20.503Z,100198.80
2018-08-10T06:03:46.493Z,100202.28
2018-08-10T06:06:12.420Z,100210.49
2018-08-10T06:08:38.356Z,100207.98
2018-08-10T06:11:04.335Z,100219.44
2018-08-10T06:13:30.268Z,100223.14
2018-08-10T06:15:56.246Z,100241.73
2018-08-10T06:18:22.206Z,100242.78
2018-08-10T06:20:48.152Z,100242.12
2018-08-10T06:23:14.091Z,100246.42
2018-08-10T06:25:41.831Z,100241.94
2018-08-10T06:28:07.837Z,100264.98
2018-08-10T06:30:33.815Z,100248.91
2018-08-10T06:32:59.836Z,100250.37
2018-08-10T06:35:25.798Z,100252.62
2018-08-10T06:37:51.787Z,100263.02
2018-08-10T06:40:17.737Z,100272.16
2018-08-10T06:42:43.707Z,100270.71
2018-08-10T06:45:09.712Z,100279.70
2018-08-10T06:47:35.642Z,100278.89
2018-08-10T06:50:01.654Z,100283.80
2018-08-10T06:52:27.613Z,100291.95
2018-08-10T06:54:53.548Z,100291.59
2018-08-10T06:57:19.507Z,100300.99
2018-08-10T06:59:45.482Z,100300.00
2018-08-10T07:02:11.449Z,100308.48
2018-08-10T07:04:37.396Z,100313.85
2018-08-10T07:07:03.393Z,100318.41
2018-08-10T07:09:29.375Z,100323.02
2018-08-10T07:11:55.425Z,100320.88
2018-08-10T07:14:21.364Z,100315.52
2018-08-10T07:16:47.374Z,100320.89
2018-08-10T07:19:13.320Z,100329.61
2018-08-10T07:21:39.300Z,100340.38
2018-08-10T07:24:05.231Z,100343.16
2018-08-10T07:26:31.195Z,100330.62
2018-08-10T07:28:57.161Z,100333.09
2018-08-10T07:31:23.096Z,100331.98
2018-08-10T07:33:49.044Z,100330.27
2018-08-10T07:36:14.996Z,100334.24
2018-08-10T07:38:40.968Z,100332.94
2018-08-10T07:41:06.901Z,100330.56
2018-08-10T07:43:32.837Z,100337.80
2018-08-10T07:45:58.787Z,100346.34
2018-08-10T07:48:24.719Z,100347.80
2018-08-10T07:50:50.706Z,100353.08
2018-08-10T07:53:16.651Z,100357.61
2018-08-10T07:55:42.617Z,100364.97
2018-08-10T07:58:08.535Z,100362.28
2018-08-10T08:00:34.493Z,100363.75
2018-08-10T08:03:00.433Z,100368.59
2018-08-10T08:05:26.397Z,100368.02
2018-08-10T08:07:52.390Z,100363.20
2018-08-10T08:10:18.311Z,100367.36
2018-08-10T08:12:44.269Z,100368.23
2018-08-10T08:15:10.209Z,100370.24
2018-08-10T08:17:36.188Z,100367.65
2018-08-10T08:20:02.159Z,100372.30
2018-08-10T08:22:28.120Z,100367.27
2018-08-10T08:24:54.068Z,100380.94
2018-08-10T08:27:20.036Z,100377.11
2018-08-10T08:29:45.997Z,100378.14
2018-08-10T08:32:11.967Z,100380.63
2018-08-10T08:34:37.940Z,100386.22
2018-08-10T08:37:03.896Z,100397.81
2018-08-10T08:39:29.806Z,100398.46
2018-08-10T08:41:56.916Z,100404.57
2018-08-10T08:44:22.900Z,100408.50
2018-08-10T08:46:48.847Z,100413.14
2018-08-10T08:49:14.781Z,100419.27
2018-08-10T08:51:40.764Z,100419.20
2018-08-10T08:54:06.810Z,100429.98
2018-08-10T08:56:32.712Z,100423.95
2018-08-10T08:58:58.697Z,100432.20
2018-08-10T09:01:24.657Z,100424.38
2018-08-10T09:03:50.653Z,100442.43
2018-08-10T09:06:16.598Z,100438.64
2018-08-10T09:08:42.542Z,100440.23
2018-08-10T09:11:08.549Z,100437.59
2018-08-10T09:13:34.487Z,100447.86
2018-08-10T09:16:00.443Z,100446.91
2018-08-10T09:18:26.398Z,100443.92
2018-08-10T09:20:52.347Z,100435.05
2018-08-10T09:23:18.360Z,100432.14
2018-08-10T09:25:44.250Z,100430.73
2018-08-10T09:28:10.204Z,100440.43
2018-08-10T09:30:36.174Z,100446.73
2018-08-10T09:33:02.128Z,100446.51
2018-08-10T09:35:28.092Z,100446.87
2018-08-10T09:37:54.048Z,100453.36
2018-08-10T09:40:20.000Z,100459.30
2018-08-10T09:42:45.999Z,100461.55
2018-08-10T09:45:11.985Z,100454.05
2018-08-10T09:47:37.888Z,100459.34
2018-08-10T09:50:03.828Z,100459.73
2018-08-10T09:52:29.781Z,100460.09
2018-08-10T09:54:55.780Z,100461.42
2018-08-10T09:57:21.708Z,100463.89
2018-08-10T09:59:47.668Z,100463.44
2018-08-10T10:02:13.597Z,100460.27
2018-08-10T10:04:39.523Z,100457.13
2018-08-10T10:07:05.464Z,100449.98
2018-08-10T10:09:31.391Z,100459.44
2018-08-10T10:11:57.356Z,100453.40
2018-08-10T10:14:23.285Z,100465.67
2018-08-10T10:16:49.244Z,100470.45
2018-08-10T10:19:15.200Z,100474.34
2018-08-10T10:21:41.164Z,100471.77
2018-08-10T10:24:07.115Z,100468.08
2018-08-10T10:26:33.071Z,100474.28
2018-08-10T10:28:59.019Z,100476.49
2018-08-10T10:31:24.986Z,100474.37
2018-08-10T10:33:50.940Z,100469.28
2018-08-10T10:36:16.872Z,100468.28
2018-08-10T10:38:42.805Z,100479.86
2018-08-10T10:41:08.743Z,100478.28
2018-08-10T10:43:34.785Z,100476.63
2018-08-10T10:46:00.738Z,100480.04
2018-08-10T10:48:26.703Z,100481.39
2018-08-10T10:50:52.676Z,100485.92
2018-08-10T10:53:18.644Z,100482.86
2018-08-10T10:55:44.580Z,100475.48
2018-08-10T10:58:10.545Z,100474.58
2018-08-10T11:00:36.502Z,100480.58
2018-08-10T11:03:02.476Z,100480.86
2018-08-10T11:05:28.532Z,100471.83
2018-08-10T11:07:54.484Z,100479.94
2018-08-10T11:10:20.827Z,100479.96
2018-08-10T11:12:46.811Z,100484.96
2018-08-10T11:15:12.741Z,100488.76
2018-08-10T11:17:38.688Z,100482.83
2018-08-10T11:20:04.643Z,100486.84
2018-08-10T11:22:30.641Z,100489.70
2018-08-10T11:24:56.577Z,100487.75
2018-08-10T11:27:22.531Z,100484.96
2018-08-10T11:29:48.463Z,100492.20
2018-08-10T11:32:14.408Z,100486.44
2018-08-10T11:34:40.368Z,100492.96
2018-08-10T11:37:06.299Z,100495.90
2018-08-10T11:39:32.248Z,100494.33
2018-08-10T11:41:58.237Z,100496.55
2018-08-10T11:44:24.180Z,100497.39
2018-08-10T11:46:50.108Z,100497.58
2018-08-10T11:49:16.050Z,100501.67
2018-08-10T11:51:42.039Z,100510.20
2018-08-10T11:54:08.018Z,100511.87
2018-08-10T11:56:33.973Z,100510.03
2018-08-10T11:58:59.925Z,100508.34
2018-08-10T12:01:25.880Z,100509.56
2018-08-10T12:03:51.825Z,100505.40
2018-08-10T12:06:17.819Z,100505.22
2018-08-10T12:08:43.766Z,100501.02
2018-08-10T12:11:09.716Z,100503.23
2018-08-10T12:13:35.663Z,100499.81
2018-08-10T12:16:01.628Z,100505.30
2018-08-10T12:18:27.582Z,100499.16
2018-08-10T12:20:53.522Z,100500.35
2018-08-10T12:23:19.521Z,100499.36
2018-08-10T12:25:45.495Z,100501.11
2018-08-10T12:28:11.454Z,100508.36
2018-08-10T12:30:37.381Z,100506.50
2018-08-10T12:33:03.451Z,100510.30
2018-08-10T12:35:29.406Z,100509.86
2018-08-10T12:37:55.351Z,100512.45
2018-08-10T12:40:21.279Z,100510.77
2018-08-10T12:42:47.220Z,100517.94
2018-08-10T12:45:13.191Z,100514.86
2018-08-10T12:47:39.121Z,100513.73
2018-08-10T12:50:05.056Z,100515.98
2018-08-10T12:52:30.993Z,100506.03
2018-08-10T12:54:56.917Z,100502.41
2018-08-10T12:57:22.853Z,100495.34
2018-08-10T12:59:48.800Z,100482.48
2018-08-10T13:02:14.768Z,100486.84
2018-08-10T13:04:40.724Z,100474.02
2018-08-10T13:07:06.676Z,100452.04
2018-08-10T13:09:32.659Z,100443.18
2018-08-10T13:11:58.616Z,100465.09
2018-08-10T13:14:24.555Z,100473.45
2018-08-10T13:16:50.501Z,100489.78
2018-08-10T13:19:16.460Z,100481.63
2018-08-10T13:21:42.430Z,100480.70
2018-08-10T13:24:08.391Z,100474.58
2018-08-10T13:26:34.356Z,100464.44
2018-08-10T13:29:00.329Z,100460.64
2018-08-10T13:31:26.300Z,100471.58
2018-08-10T13:33:52.242Z,100470.59
2018-08-10T13:36:18.187Z,100477.89
2018-08-10T13:38:44.130Z,100470.28
2018-08-10T13:41:10.063Z,100486.06
2018-08-10T13:43:36.044Z,100481.99
2018-08-10T13:46:01.967Z,100485.27
2018-08-10T13:48:27.898Z,100482.94
2018-08-10T13:50:53.832Z,100478.73
2018-08-10T13:53:19.801Z,100483.12
2018-08-10T13:55:45.723Z,100473.25
2018-08-10T13:58:11.678Z,100459.49
2018-08-10T14:00:37.656Z,100454.88
2018-08-10T14:03:03.603Z,100460.54
2018-08-10T14:05:29.549Z,100464.52
2018-08-10T14:07:55.495Z,100461.55
2018-08-10T14:10:21.465Z,100465.45
2018-08-10T14:12:47.401Z,100466.84
2018-08-10T14:15:13.361Z,100483.12
2018-08-10T14:17:39.288Z,100475.31
2018-08-10T14:20:05.253Z,100456.36
2018-08-10T14:22:31.198Z,100456.30
2018-08-10T14:24:57.164Z,100469.73
2018-08-10T14:27:23.123Z,100477.44
2018-08-10T14:29:49.052Z,100478.67
2018-08-10T14:32:15.030Z,100480.79
2018-08-10T14:34:40.966Z,100466.94
2018-08-10T14:37:06.936Z,100465.47
2018-08-10T14:39:32.923Z,100467.39
2018-08-10T14:41:58.893Z,100472.70
2018-08-10T14:44:24.944Z,100464.91
2018-08-10T14:46:50.930Z,100470.59
2018-08-10T14:49:16.860Z,100476.34
2018-08-10T14:51:42.841Z,100462.55
2018-08-10T14:54:08.777Z,100466.48
2018-08-10T14:56:34.741Z,100459.80
2018-08-10T14:59:00.681Z,100463.44
2018-08-10T15:01:26.622Z,100468.27
2018-08-10T15:03:52.580Z,100471.59
2018-08-10T15:06:18.566Z,100478.09
2018-08-10T15:08:44.524Z,100477.47
2018-08-10T15:11:10.491Z,100475.39
2018-08-10T15:13:36.451Z,100465.25
2018-08-10T15:16:02.408Z,100461.94
2018-08-10T15:18:28.356Z,100466.68
2018-08-10T15:20:54.305Z,100454.84
2018-08-10T15:23:20.255Z,100451.92
2018-08-10T15:25:46.217Z,100451.34
2018-08-10T15:28:12.169Z,100452.83
2018-08-10T15:30:38.156Z,100451.91
2018-08-10T15:33:04.108Z,100448.57
2018-08-10T15:35:30.078Z,100450.98
2018-08-10T15:37:56.012Z,100450.33
2018-08-10T15:40:21.959Z,100439.77
2018-08-10T15:42:47.927Z,100438.37
2018-08-10T15:45:13.902Z,100437.59
2018-08-10T15:47:39.856Z,100431.44
2018-08-10T15:50:05.808Z,100427.22
2018-08-10T15:52:31.753Z,100429.23
2018-08-10T15:54:57.713Z,100428.28
2018-08-10T15:57:23.691Z,100418.92
2018-08-10T15:59:49.690Z,100415.88
2018-08-10T16:02:15.793Z,100411.42
2018-08-10T16:04:41.628Z,100406.22
2018-08-10T16:07:07.576Z,100402.68
2018-08-10T16:09:33.526Z,100401.77
2018-08-10T16:11:59.475Z,100402.13
2018-08-10T16:14:28.959Z,100409.27
2018-08-10T16:16:54.919Z,100403.04
2018-08-10T16:19:20.927Z,100406.98
2018-08-10T16:21:46.899Z,100407.33
2018-08-10T16:24:12.866Z,100398.52
2018-08-10T16:26:38.807Z,100399.82
2018-08-10T16:29:04.765Z,100398.98
2018-08-10T16:31:30.741Z,100400.06
2018-08-10T16:33:56.702Z,100398.65
2018-08-10T16:36:26.512Z,100395.95
2018-08-10T16:38:52.463Z,100396.37
2018-08-10T16:41:18.416Z,100391.12
2018-08-10T16:43:44.372Z,100395.08
2018-08-10T16:46:10.304Z,100394.72
2018-08-10T16:48:36.259Z,100396.75
2018-08-10T16:51:02.226Z,100391.11
2018-08-10T16:53:28.267Z,100394.72
2018-08-10T16:55:54.250Z,100390.94
2018-08-10T17:00:56.340Z,100390.75
2018-08-10T17:03:22.325Z,100390.24
2018-08-10T17:05:48.313Z,100392.27
2018-08-10T17:08:14.476Z,100392.72
2018-08-10T17:10:40.502Z,100398.22
2018-08-10T17:13:06.494Z,100398.79
2018-08-10T17:15:32.559Z,100406.41
2018-08-10T17:17:58.561Z,100407.15
2018-08-10T17:20:24.572Z,100406.70
2018-08-10T17:22:50.592Z,100409.53
2018-08-10T17:25:16.614Z,100405.91
2018-08-10T17:27:42.597Z,100407.86
2018-08-10T17:30:08.615Z,100409.72
2018-08-10T17:32:34.603Z,100408.52
2018-08-10T17:35:00.572Z,100407.03
2018-08-10T17:37:26.559Z,100405.20
2018-08-10T17:39:52.590Z,100409.42
2018-08-10T17:42:18.548Z,100417.45
2018-08-10T17:44:44.556Z,100416.78
2018-08-10T17:47:10.511Z,100420.19
2018-08-10T17:49:36.546Z,100423.75
2018-08-10T17:52:02.570Z,100421.17
2018-08-10T17:54:28.654Z,100426.17
2018-08-10T17:56:54.628Z,100420.77
2018-08-10T17:59:20.664Z,100424.77
2018-08-10T18:01:46.677Z,100423.92
2018-08-10T18:04:12.684Z,100425.73
2018-08-10T18:06:38.660Z,100432.36
2018-08-10T18:09:04.712Z,100436.46
2018-08-10T18:11:30.677Z,100437.81
2018-08-10T18:13:56.781Z,100446.35
2018-08-10T18:16:22.850Z,100444.73
2018-08-10T18:18:48.960Z,100450.89
2018-08-10T18:21:14.971Z,100451.64
2018-08-10T18:23:40.972Z,100449.02
2018-08-10T18:26:07.048Z,100444.65
2018-08-10T18:28:33.125Z,100443.95
2018-08-10T18:30:59.239Z,100442.52
2018-08-10T18:33:25.375Z,100448.29
2018-08-10T18:35:51.398Z,100450.07
2018-08-10T18:38:17.430Z,100450.58
2018-08-10T18:40:43.438Z,100460.73
2018-08-10T18:43:09.522Z,100461.81
2018-08-10T18:45:35.537Z,100459.41
2018-08-10T18:48:01.497Z,100461.52
2018-08-10T18:50:27.641Z,100461.03
2018-08-10T18:52:53.611Z,100461.27
2018-08-10T18:55:19.706Z,100463.73
2018-08-10T18:57:45.744Z,100463.17
2018-08-10T19:00:11.731Z,100464.98
2018-08-10T19:02:37.740Z,100467.06
2018-08-10T19:05:03.738Z,100468.37
2018-08-10T19:07:29.763Z,100466.06
2018-08-10T19:09:55.709Z,100475.80
2018-08-10T19:12:21.728Z,100471.72
2018-08-10T19:14:47.712Z,100480.42
2018-08-10T19:17:13.661Z,100484.76
2018-08-10T19:19:39.625Z,100488.96
2018-08-10T19:22:05.598Z,100489.77
2018-08-10T19:24:31.649Z,100489.36
2018-08-10T19:26:57.633Z,100489.25
2018-08-10T19:29:23.663Z,100485.55
2018-08-10T19:31:50.049Z,100482.58
2018-08-10T19:34:16.067Z,100488.91
2018-08-10T19:36:42.072Z,100489.26
2018-08-10T19:39:08.026Z,100492.07
2018-08-10T19:41:34.002Z,100492.26
2018-08-10T19:44:00.626Z,100492.99
2018-08-10T19:46:26.637Z,100499.62
2018-08-10T19:48:52.609Z,100502.48
2018-08-10T19:51:18.602Z,100491.05
2018-08-10T19:53:44.552Z,100499.26
2018-08-10T19:56:10.598Z,100496.84
2018-08-10T19:58:36.520Z,100497.00
2018-08-10T20:01:02.483Z,100494.44
2018-08-10T20:03:28.453Z,100494.70
2018-08-10T20:05:54.418Z,100494.23
2018-08-10T20:08:20.406Z,100496.23
2018-08-10T20:10:46.349Z,100490.40
2018-08-10T20:13:12.320Z,100493.50
2018-08-10T20:15:38.409Z,100494.55
2018-08-10T20:18:04.316Z,100499.17
2018-08-10T20:20:30.259Z,100501.77
2018-08-10T20:22:56.230Z,100497.45
2018-08-10T20:25:22.245Z,100492.91
2018-08-10T20:27:48.186Z,100489.98
2018-08-10T20:30:14.176Z,100492.83
2018-08-10T20:32:40.139Z,100489.23
2018-08-10T20:35:06.113Z,100490.21
2018-08-10T20:37:32.107Z,100488.80
2018-08-10T20:39:58.112Z,100489.69
2018-08-10T20:42:24.068Z,100486.02
2018-08-10T20:44:50.028Z,100489.52
2018-08-10T20:47:16.000Z,100487.17
2018-08-10T20:49:41.935Z,100487.38
2018-08-10T20:52:08.019Z,100481.00
2018-08-10T20:54:33.985Z,100474.28
2018-08-10T20:57:00.049Z,100474.84
2018-08-10T20:59:26.022Z,100483.49
2018-08-10T21:01:52.221Z,100483.68
2018-08-10T21:04:18.200Z,100481.78
2018-08-10T21:06:44.147Z,100476.61
2018-08-10T21:09:10.109Z,100477.30
2018-08-10T21:11:36.114Z,100469.14
2018-08-10T21:14:02.064Z,100476.81
2018-08-10T21:16:28.015Z,100475.21
2018-08-10T21:18:54.010Z,100477.84
2018-08-10T21:21:19.955Z,100470.73
2018-08-10T21:23:45.961Z,100474.70
2018-08-10T21:26:11.916Z,100472.56
2018-08-10T21:28:37.892Z,100464.86
2018-08-10T21:31:03.862Z,100468.68
2018-08-10T21:33:30.020Z,100468.53
2018-08-10T21:35:55.955Z,100469.78
2018-08-10T21:38:21.892Z,100470.53
2018-08-10T21:40:47.848Z,100477.51
2018-08-10T21:43:13.921Z,100474.89
2018-08-10T21:45:39.826Z,100469.53
2018-08-10T21:48:05.816Z,100478.23
2018-08-10T21:50:31.761Z,100483.68
2018-08-10T21:52:57.727Z,100488.66
2018-08-10T21:55:23.653Z,100489.30
2018-08-10T21:57:49.604Z,100483.50
2018-08-10T22:00:15.550Z,100479.64
2018-08-10T22:02:41.500Z,100479.61
2018-08-10T22:05:07.429Z,100481.95
2018-08-10T22:07:33.465Z,100487.21
2018-08-10T22:09:59.393Z,100488.95
2018-08-10T22:12:25.337Z,100486.45
2018-08-10T22:14:51.294Z,100486.53
2018-08-10T22:17:17.232Z,100487.97
2018-08-10T22:19:43.180Z,100487.89
2018-08-10T22:22:09.115Z,100490.36
2018-08-10T22:24:35.070Z,100486.80
2018-08-10T22:27:01.028Z,100492.92
2018-08-10T22:29:26.986Z,100488.70
2018-08-10T22:31:52.942Z,100492.64
2018-08-10T22:34:19.054Z,100497.38
2018-08-10T22:36:45.020Z,100497.38
2018-08-10T22:39:10.981Z,100498.23
2018-08-10T22:41:36.916Z,100489.06
2018-08-10T22:44:02.860Z,100493.75
2018-08-10T22:46:28.809Z,100491.07
2018-08-10T22:48:54.749Z,100493.91
2018-08-10T22:51:20.710Z,100492.76
2018-08-10T22:53:46.675Z,100489.19
2018-08-10T22:56:12.620Z,100490.23
2018-08-10T22:58:38.582Z,100486.25
2018-08-10T23:01:04.527Z,100485.63
2018-08-10T23:03:30.475Z,100482.91
2018-08-10T23:05:56.405Z,100479.27
2018-08-10T23:08:22.398Z,100480.73
2018-08-10T23:10:48.289Z,100476.39
2018-08-10T23:13:14.232Z,100474.80
2018-08-10T23:15:40.183Z,100465.34
2018-08-10T23:18:06.139Z,100468.73
2018-08-10T23:20:32.179Z,100466.02
2018-08-10T23:22:58.024Z,100460.35
2018-08-10T23:25:23.986Z,100465.46
2018-08-10T23:27:49.921Z,100470.00
2018-08-10T23:30:15.869Z,100472.09
2018-08-10T23:32:41.795Z,100469.73
2018-08-10T23:35:07.778Z,100467.07
2018-08-10T23:37:33.739Z,100473.66
2018-08-10T23:39:59.688Z,100468.91
2018-08-10T23:42:25.656Z,100463.00
2018-08-10T23:44:51.610Z,100465.17
2018-08-10T23:47:17.555Z,100470.34
2018-08-10T23:49:43.530Z,100464.62
2018-08-10T23:52:09.474Z,100462.69
2018-08-10T23:54:35.444Z,100461.19
2018-08-10T23:57:01.377Z,100458.50
2018-08-10T23:59:27.333Z,100455.38
